aviador You're here:

YSCB Decoded Metar

CANBERRA in AUSTRALIA
Report Time2018-02-17 23:30:00
UTC Time2018-02-17 23:42:55
Flight Rules vfr VFR
Wind280° at 05 kt
W.Decomp.*RWY 30: 4.2 kt HW 2.6 kt LCW
RWY 35: 0.7 kt HW 5 kt LCW
W.Rank280° ranks 19
Current wind is below 280° avg. (9.7)
Visibility9999 m
Phenomena:N/A
Clouds:N/A
Expected CloudBase > 5,200 ft AGL from Temp-Dew spread
CeilingNone
Temp25°C (ISA +14)
Dew Point12°C (44% RH)
AAT23.8°C
QNH1014 hPa
Density Alt3,638 ft
Elevation1,893 ft
Report Wrong Elevation
Raw Report
METAR YSCB 172330Z 28005KT 240V310 CAVOK 25/12 Q1014
NOSIG=

Extra information for YSCB:More info

Metar Taf Metar & Taf Last 4 Metars F.Rules Stats Wind Profile Meteogram Temp Stats Airport Information Weather charts Add Link Nearby VenuesMetar ALERT Operation Metar Decoded Social comments